createdAt,value
2023-01-30T00:01:19.824Z,25.73
2023-01-30T00:03:46.784Z,27.27
2023-01-30T00:06:14.220Z,28.27
2023-01-30T00:08:42.208Z,27.47
2023-01-30T00:11:11.830Z,29.47
2023-01-30T00:13:40.180Z,26.47
2023-01-30T00:16:09.695Z,26.90
2023-01-30T00:18:38.600Z,26.23
2023-01-30T00:21:07.913Z,27.83
2023-01-30T00:23:36.278Z,27.93
2023-01-30T00:26:04.414Z,28.23
2023-01-30T00:28:31.256Z,28.87
2023-01-30T00:30:58.242Z,28.53
2023-01-30T00:33:26.588Z,29.13
2023-01-30T00:35:55.289Z,30.33
2023-01-30T00:38:23.409Z,27.83
2023-01-30T00:40:50.694Z,28.33
2023-01-30T00:43:38.622Z,29.10
2023-01-30T00:46:32.398Z,29.73
2023-01-30T00:48:59.092Z,29.47
2023-01-30T00:51:25.836Z,29.07
2023-01-30T00:53:52.480Z,29.13
2023-01-30T00:56:19.448Z,30.87
2023-01-30T00:58:46.128Z,31.93
2023-01-30T01:01:12.872Z,30.37
2023-01-30T01:03:39.628Z,31.30
2023-01-30T01:06:07.007Z,32.23
2023-01-30T01:08:35.888Z,31.47
2023-01-30T01:11:02.798Z,33.70
2023-01-30T01:13:29.668Z,34.27
2023-01-30T01:15:56.543Z,35.10
2023-01-30T01:18:23.336Z,34.77
2023-01-30T01:20:50.064Z,34.23
2023-01-30T01:23:16.753Z,34.27
2023-01-30T01:25:43.484Z,34.30
2023-01-30T01:28:10.170Z,35.07
2023-01-30T01:30:38.347Z,35.13
2023-01-30T01:33:05.164Z,34.17
2023-01-30T01:35:31.902Z,33.17
2023-01-30T01:37:58.587Z,33.47
2023-01-30T01:40:43.822Z,33.60
2023-01-30T01:43:36.360Z,33.97
2023-01-30T01:46:09.946Z,33.93
2023-01-30T01:48:45.089Z,32.07
2023-01-30T01:51:26.695Z,33.57
2023-01-30T01:54:26.335Z,32.33
2023-01-30T01:56:53.784Z,31.23
2023-01-30T01:59:32.233Z,29.70
2023-01-30T02:02:03.485Z,31.13
2023-01-30T02:04:50.881Z,32.13
2023-01-30T02:07:20.219Z,31.73
2023-01-30T02:09:47.185Z,30.30
2023-01-30T02:12:15.489Z,31.37
2023-01-30T02:14:43.945Z,28.80
2023-01-30T02:17:10.708Z,31.13
2023-01-30T02:20:01.965Z,28.37
2023-01-30T02:22:50.391Z,28.47
2023-01-30T02:25:35.270Z,30.17
2023-01-30T02:28:04.615Z,28.73
2023-01-30T02:30:37.419Z,28.97
2023-01-30T02:33:19.001Z,28.43
2023-01-30T02:35:51.953Z,29.53
2023-01-30T02:38:42.063Z,28.67
2023-01-30T02:41:08.690Z,30.87
2023-01-30T02:44:05.018Z,29.30
2023-01-30T02:46:53.156Z,31.20
2023-01-30T02:49:42.494Z,30.10
2023-01-30T02:52:12.709Z,32.10
2023-01-30T02:54:39.579Z,32.17
2023-01-30T02:57:21.793Z,31.77
2023-01-30T02:59:58.967Z,32.60
2023-01-30T03:02:52.276Z,33.97
2023-01-30T03:05:49.240Z,33.20
2023-01-30T03:08:28.178Z,34.07
2023-01-30T03:11:04.406Z,32.70
2023-01-30T03:13:37.663Z,32.80
2023-01-30T03:16:12.052Z,33.13
2023-01-30T03:18:44.682Z,32.97
2023-01-30T03:21:12.685Z,33.93
2023-01-30T03:23:39.540Z,33.10
2023-01-30T03:26:13.034Z,33.07
2023-01-30T03:28:40.353Z,31.50
2023-01-30T03:31:07.281Z,30.67
2023-01-30T03:33:34.054Z,32.47
2023-01-30T03:36:00.777Z,30.50
2023-01-30T03:38:27.811Z,30.73
2023-01-30T03:40:54.509Z,31.07
2023-01-30T03:43:21.240Z,30.40
2023-01-30T03:45:48.088Z,29.53
2023-01-30T03:48:15.295Z,30.20
2023-01-30T03:50:42.233Z,29.00
2023-01-30T03:53:09.543Z,29.67
2023-01-30T03:55:36.380Z,28.27
2023-01-30T03:58:03.620Z,28.50
2023-01-30T04:00:30.404Z,27.83
2023-01-30T04:02:57.404Z,28.50
2023-01-30T04:05:24.069Z,27.93
2023-01-30T04:07:51.483Z,25.03
2023-01-30T04:10:20.088Z,26.10
2023-01-30T04:12:47.414Z,25.17
2023-01-30T04:15:33.103Z,23.77
2023-01-30T04:18:19.805Z,24.43
2023-01-30T04:20:47.467Z,25.13
2023-01-30T04:23:14.302Z,23.33
2023-01-30T04:25:40.980Z,23.27
2023-01-30T04:28:07.687Z,23.97
2023-01-30T04:30:34.354Z,23.73
2023-01-30T04:33:01.223Z,23.13
2023-01-30T04:35:27.890Z,23.83
2023-01-30T04:37:54.756Z,25.33
2023-01-30T04:40:21.492Z,22.90
2023-01-30T04:42:48.214Z,21.77
2023-01-30T04:45:15.022Z,22.30
2023-01-30T04:47:41.791Z,20.53
2023-01-30T04:50:09.448Z,23.03
2023-01-30T04:52:37.138Z,20.53
2023-01-30T04:55:05.449Z,20.83
2023-01-30T04:57:32.254Z,20.57
2023-01-30T04:59:59.113Z,19.50
2023-01-30T05:02:25.899Z,19.77
2023-01-30T05:04:52.554Z,18.97
2023-01-30T05:07:19.380Z,18.03
2023-01-30T05:09:46.110Z,17.27
2023-01-30T05:12:12.768Z,17.73
2023-01-30T05:14:41.437Z,17.30
2023-01-30T05:17:08.432Z,17.27
2023-01-30T05:19:35.601Z,15.30
2023-01-30T05:22:02.654Z,14.63
2023-01-30T05:24:29.456Z,11.67
2023-01-30T05:26:56.163Z,14.10
2023-01-30T05:29:23.047Z,14.20
2023-01-30T05:31:49.976Z,12.77
2023-01-30T05:34:16.728Z,14.10
2023-01-30T05:36:43.377Z,13.97
2023-01-30T05:39:10.163Z,13.60
2023-01-30T05:41:36.794Z,13.37
2023-01-30T05:44:03.458Z,13.93
2023-01-30T05:46:30.319Z,13.60
2023-01-30T05:48:57.740Z,14.57
2023-01-30T05:51:26.719Z,12.67
2023-01-30T05:53:53.703Z,13.77
2023-01-30T05:56:20.693Z,13.13
2023-01-30T05:58:55.427Z,12.33
2023-01-30T06:01:23.100Z,11.23
2023-01-30T06:03:50.284Z,10.70
2023-01-30T06:06:17.038Z,10.13
2023-01-30T06:08:43.800Z,10.43
2023-01-30T06:11:15.892Z,10.03
2023-01-30T06:13:43.396Z,10.30
2023-01-30T06:16:12.768Z,10.10
2023-01-30T06:18:39.824Z,10.03
2023-01-30T06:21:07.181Z,9.80
2023-01-30T06:23:34.381Z,8.93
2023-01-30T06:26:04.619Z,9.07
2023-01-30T06:28:32.162Z,8.90
2023-01-30T06:30:59.027Z,9.03
2023-01-30T06:33:25.871Z,8.90
2023-01-30T06:35:52.878Z,9.50
2023-01-30T06:38:20.856Z,9.37
2023-01-30T06:40:50.608Z,8.63
2023-01-30T06:43:17.785Z,8.63
2023-01-30T06:45:44.473Z,8.83
2023-01-30T06:48:11.235Z,9.67
2023-01-30T06:50:38.224Z,7.60
2023-01-30T06:53:06.759Z,7.67
2023-01-30T06:55:35.537Z,6.90
2023-01-30T06:58:07.681Z,7.00
2023-01-30T07:00:35.171Z,6.13
2023-01-30T07:03:02.226Z,5.97
2023-01-30T07:05:30.519Z,7.90
2023-01-30T07:07:57.508Z,7.53
2023-01-30T07:10:26.621Z,7.90
2023-01-30T07:12:53.761Z,6.70
2023-01-30T07:15:20.842Z,6.73
2023-01-30T07:17:47.766Z,6.77
2023-01-30T07:20:14.590Z,6.57
2023-01-30T07:22:41.383Z,5.87
2023-01-30T07:25:08.827Z,5.50
2023-01-30T07:27:35.805Z,5.83
2023-01-30T07:30:02.865Z,4.53
2023-01-30T07:32:29.755Z,5.03
2023-01-30T07:34:56.444Z,4.47
2023-01-30T07:37:23.152Z,5.10
2023-01-30T07:39:49.913Z,4.90
2023-01-30T07:42:16.868Z,3.63
2023-01-30T07:44:43.700Z,4.07
2023-01-30T07:47:10.381Z,4.30
2023-01-30T07:49:37.161Z,4.30
2023-01-30T07:52:04.507Z,3.97
2023-01-30T07:54:31.251Z,3.70
2023-01-30T07:56:57.930Z,4.80
2023-01-30T07:59:24.624Z,3.77
2023-01-30T08:01:51.384Z,3.70
2023-01-30T08:04:18.149Z,4.03
2023-01-30T08:06:45.204Z,4.57
2023-01-30T08:09:11.945Z,3.83
2023-01-30T08:11:38.779Z,3.73
2023-01-30T08:14:05.544Z,3.33
2023-01-30T08:16:34.074Z,3.50
2023-01-30T08:19:00.827Z,3.63
2023-01-30T08:21:27.626Z,3.67
2023-01-30T08:23:54.702Z,3.23
2023-01-30T08:26:21.648Z,3.60
2023-01-30T08:28:48.388Z,4.33
2023-01-30T08:31:16.563Z,4.07
2023-01-30T08:33:43.607Z,3.10
2023-01-30T08:36:10.502Z,4.07
2023-01-30T08:38:37.235Z,4.13
2023-01-30T08:41:08.322Z,3.97
2023-01-30T08:43:35.289Z,4.13
2023-01-30T08:46:02.459Z,3.80
2023-01-30T08:48:36.645Z,4.30
2023-01-30T08:51:07.148Z,4.00
2023-01-30T08:53:33.972Z,3.60
2023-01-30T08:56:00.598Z,4.10
2023-01-30T08:58:27.722Z,4.23
2023-01-30T09:00:54.473Z,3.47
2023-01-30T09:03:21.200Z,3.50
2023-01-30T09:05:47.958Z,3.77
2023-01-30T09:08:14.665Z,3.23
2023-01-30T09:10:41.451Z,3.60
2023-01-30T09:13:11.242Z,3.60
2023-01-30T09:15:37.978Z,3.77
2023-01-30T09:18:05.189Z,4.27
2023-01-30T09:20:31.943Z,3.10
2023-01-30T09:22:58.777Z,3.10
2023-01-30T09:25:25.749Z,3.50
2023-01-30T09:27:52.847Z,4.10
2023-01-30T09:30:20.439Z,3.07
2023-01-30T09:32:48.449Z,3.50
2023-01-30T09:35:15.289Z,3.67
2023-01-30T09:37:53.015Z,3.17
2023-01-30T09:40:31.585Z,3.33
2023-01-30T09:43:15.537Z,3.60
2023-01-30T09:45:50.037Z,3.47
2023-01-30T09:48:34.548Z,3.70
2023-01-30T09:51:10.172Z,4.03
2023-01-30T09:53:55.690Z,3.43
2023-01-30T09:56:22.734Z,3.77
2023-01-30T09:58:55.322Z,3.67
2023-01-30T10:01:45.750Z,4.40
2023-01-30T10:04:35.896Z,3.63
2023-01-30T10:07:17.606Z,3.33
2023-01-30T10:10:04.835Z,3.70
2023-01-30T10:12:37.039Z,4.00
2023-01-30T10:15:45.952Z,4.17
2023-01-30T10:18:31.582Z,3.23
2023-01-30T10:21:32.752Z,3.93
2023-01-30T10:24:21.367Z,3.87
2023-01-30T10:26:48.835Z,4.13
2023-01-30T10:29:28.825Z,3.80
2023-01-30T10:32:18.827Z,3.97
2023-01-30T10:34:53.935Z,3.90
2023-01-30T10:37:30.858Z,4.00
2023-01-30T10:40:06.284Z,3.90
2023-01-30T10:42:47.476Z,3.13
2023-01-30T10:45:21.002Z,4.03
2023-01-30T10:48:18.890Z,3.20
2023-01-30T10:50:56.304Z,4.10
2023-01-30T10:53:33.604Z,3.60
2023-01-30T10:56:27.507Z,3.20
2023-01-30T10:59:22.344Z,3.53
2023-01-30T11:02:20.835Z,3.57
2023-01-30T11:05:01.135Z,3.77
2023-01-30T11:07:31.783Z,3.77
2023-01-30T11:09:59.720Z,4.00
2023-01-30T11:12:27.135Z,3.67
2023-01-30T11:14:58.931Z,3.90
2023-01-30T11:17:33.590Z,5.03
2023-01-30T11:20:21.729Z,3.53
2023-01-30T11:23:04.047Z,3.03
2023-01-30T11:25:31.044Z,4.07
2023-01-30T11:28:03.394Z,3.40
2023-01-30T11:30:35.052Z,4.97
2023-01-30T11:33:22.416Z,4.07
2023-01-30T11:35:58.366Z,3.73
2023-01-30T11:38:27.692Z,3.80
2023-01-30T11:41:04.988Z,4.27
2023-01-30T11:43:34.151Z,4.60
2023-01-30T11:46:02.294Z,4.03
2023-01-30T11:49:02.454Z,4.23
2023-01-30T11:51:23.896Z,3.40
2023-01-30T11:54:06.078Z,3.63
2023-01-30T11:56:42.814Z,3.23
2023-01-30T11:59:18.654Z,2.67
2023-01-30T12:01:45.395Z,2.40
2023-01-30T12:04:13.869Z,3.40
2023-01-30T12:06:42.905Z,3.30
2023-01-30T12:09:33.512Z,3.97
2023-01-30T12:12:00.352Z,3.33
2023-01-30T12:14:36.515Z,3.43
2023-01-30T12:17:06.171Z,2.50
2023-01-30T12:20:07.957Z,3.40
2023-01-30T12:23:15.272Z,3.33
2023-01-30T12:26:18.663Z,3.60
2023-01-30T12:28:52.264Z,3.27
2023-01-30T12:31:24.735Z,3.33
2023-01-30T12:33:51.628Z,3.33
2023-01-30T12:36:35.309Z,3.17
2023-01-30T12:39:25.653Z,3.17
2023-01-30T12:42:26.206Z,2.77
2023-01-30T12:45:14.583Z,2.90
2023-01-30T12:48:05.778Z,2.97
2023-01-30T12:50:41.449Z,2.63
2023-01-30T12:53:25.784Z,3.17
2023-01-30T12:56:09.339Z,2.50
2023-01-30T12:58:46.024Z,2.40
2023-01-30T13:01:44.415Z,2.40
2023-01-30T13:04:33.570Z,2.03
2023-01-30T13:07:39.668Z,1.93
2023-01-30T13:10:14.052Z,1.70
2023-01-30T13:12:45.039Z,2.30
2023-01-30T13:15:26.688Z,2.17
2023-01-30T13:18:15.260Z,2.77
2023-01-30T13:20:45.172Z,2.23
2023-01-30T13:23:22.924Z,2.40
2023-01-30T13:26:04.862Z,2.33
2023-01-30T13:28:43.794Z,2.90
2023-01-30T13:31:15.066Z,2.67
2023-01-30T13:33:44.764Z,2.40
2023-01-30T13:36:35.403Z,2.47
2023-01-30T13:39:14.892Z,2.83
2023-01-30T13:41:48.685Z,2.60
2023-01-30T13:44:22.663Z,2.70
2023-01-30T13:46:52.563Z,2.67
2023-01-30T13:49:48.160Z,2.70
2023-01-30T13:52:19.385Z,2.43
2023-01-30T13:54:58.246Z,2.47
2023-01-30T13:57:40.597Z,2.83
2023-01-30T14:00:25.883Z,2.33
2023-01-30T14:03:47.967Z,2.10
2023-01-30T14:06:31.072Z,2.83
2023-01-30T14:09:01.270Z,3.07
2023-01-30T14:11:43.068Z,2.47
2023-01-30T14:14:16.117Z,3.17
2023-01-30T14:16:46.382Z,2.63
2023-01-30T14:19:55.615Z,2.93
2023-01-30T14:22:31.886Z,2.53
2023-01-30T14:25:36.038Z,3.07
2023-01-30T14:28:05.841Z,2.90
2023-01-30T14:30:44.732Z,2.83
2023-01-30T14:33:23.769Z,2.70
2023-01-30T14:36:15.988Z,2.90
2023-01-30T14:38:45.350Z,3.30
2023-01-30T14:41:23.981Z,3.87
2023-01-30T14:43:53.602Z,3.13
2023-01-30T14:46:20.628Z,3.67
2023-01-30T14:49:04.490Z,3.00
2023-01-30T14:51:57.502Z,3.07
2023-01-30T14:54:41.070Z,3.90
2023-01-30T14:57:24.262Z,3.10
2023-01-30T15:00:14.959Z,2.63
2023-01-30T15:02:49.186Z,2.90
2023-01-30T15:05:20.028Z,2.97
2023-01-30T15:07:56.088Z,2.80
2023-01-30T15:11:00.525Z,3.50
2023-01-30T15:14:01.078Z,3.00
2023-01-30T15:17:15.335Z,3.63
2023-01-30T15:20:13.241Z,3.53
2023-01-30T15:22:48.805Z,3.50
2023-01-30T15:25:43.184Z,3.23
2023-01-30T15:28:39.309Z,2.97
2023-01-30T15:31:14.190Z,4.23
2023-01-30T15:33:52.619Z,4.30
2023-01-30T15:36:36.448Z,3.37
2023-01-30T15:39:19.538Z,3.67
2023-01-30T15:41:46.272Z,3.30
2023-01-30T15:44:31.699Z,3.77
2023-01-30T15:47:12.412Z,3.93
2023-01-30T15:49:41.908Z,4.03
2023-01-30T15:52:16.234Z,3.77
2023-01-30T15:54:52.078Z,4.13
2023-01-30T15:57:33.557Z,3.63
2023-01-30T16:00:01.247Z,4.27
2023-01-30T16:02:35.089Z,3.77
2023-01-30T16:05:19.911Z,3.93
2023-01-30T16:07:48.492Z,3.80
2023-01-30T16:10:17.040Z,3.87
2023-01-30T16:12:44.567Z,3.77
2023-01-30T16:15:26.919Z,4.77
2023-01-30T16:18:14.901Z,4.87
2023-01-30T16:23:42.600Z,3.40
2023-01-30T16:26:21.902Z,3.87
2023-01-30T16:28:51.004Z,4.60
2023-01-30T16:31:18.718Z,3.90
2023-01-30T16:33:52.780Z,4.13
2023-01-30T16:36:22.560Z,3.83
2023-01-30T16:38:50.616Z,3.47
2023-01-30T16:41:39.513Z,3.97
2023-01-30T16:44:24.140Z,4.10
2023-01-30T16:46:58.303Z,4.13
2023-01-30T16:49:37.093Z,4.10
2023-01-30T16:52:21.645Z,4.17
2023-01-30T16:54:56.679Z,3.97
2023-01-30T16:57:27.875Z,4.07
2023-01-30T16:59:55.664Z,4.20
2023-01-30T17:02:43.427Z,3.70
2023-01-30T17:05:31.466Z,4.33
2023-01-30T17:07:58.515Z,3.80
2023-01-30T17:10:28.084Z,3.87
2023-01-30T17:12:58.308Z,4.40
2023-01-30T17:15:27.179Z,3.93
2023-01-30T17:17:53.888Z,4.17
2023-01-30T17:20:20.820Z,4.33
2023-01-30T17:22:52.610Z,4.07
2023-01-30T17:25:38.193Z,4.20
2023-01-30T17:28:06.825Z,4.07
2023-01-30T17:30:33.853Z,4.80
2023-01-30T17:33:00.639Z,4.67
2023-01-30T17:35:27.435Z,4.17
2023-01-30T17:38:04.910Z,4.60
2023-01-30T17:40:36.924Z,4.70
2023-01-30T17:43:04.052Z,3.73
2023-01-30T17:45:30.808Z,4.67
2023-01-30T17:47:57.563Z,4.00
2023-01-30T17:50:24.433Z,4.50
2023-01-30T17:52:51.129Z,4.70
2023-01-30T17:55:18.375Z,4.03
2023-01-30T17:57:47.712Z,4.17
2023-01-30T18:00:20.707Z,4.30
2023-01-30T18:02:47.902Z,3.87
2023-01-30T18:05:14.819Z,3.90
2023-01-30T18:07:42.493Z,4.27
2023-01-30T18:10:16.556Z,4.17
2023-01-30T18:12:45.407Z,3.60
2023-01-30T18:15:15.080Z,4.43
2023-01-30T18:17:47.327Z,4.67
2023-01-30T18:20:17.716Z,3.77
2023-01-30T18:22:44.868Z,4.80
2023-01-30T18:25:15.307Z,4.73
2023-01-30T18:27:44.268Z,4.40
2023-01-30T18:30:17.511Z,3.67
2023-01-30T18:32:53.009Z,4.93
2023-01-30T18:35:22.220Z,3.90
2023-01-30T18:37:50.019Z,4.40
2023-01-30T18:40:17.956Z,4.77
2023-01-30T18:42:44.862Z,3.83
2023-01-30T18:45:11.882Z,4.23
2023-01-30T18:47:44.248Z,3.93
2023-01-30T18:50:11.986Z,4.47
2023-01-30T18:52:38.619Z,4.63
2023-01-30T18:55:05.701Z,3.93
2023-01-30T18:57:32.414Z,4.67
2023-01-30T18:59:59.251Z,4.90
2023-01-30T19:02:25.961Z,4.43
2023-01-30T19:04:52.618Z,4.93
2023-01-30T19:07:19.379Z,4.50
2023-01-30T19:09:46.559Z,4.33
2023-01-30T19:12:31.946Z,4.63
2023-01-30T19:14:58.631Z,5.00
2023-01-30T19:17:25.468Z,4.50
2023-01-30T19:19:52.224Z,5.03
2023-01-30T19:22:19.088Z,4.17
2023-01-30T19:24:45.831Z,5.43
2023-01-30T19:27:13.945Z,4.90
2023-01-30T19:29:41.743Z,5.07
2023-01-30T19:32:09.463Z,4.83
2023-01-30T19:34:37.603Z,4.50
2023-01-30T19:37:04.341Z,5.30
2023-01-30T19:39:30.999Z,4.73
2023-01-30T19:41:57.954Z,4.87
2023-01-30T19:44:25.156Z,4.93
2023-01-30T19:46:52.310Z,6.07
2023-01-30T19:49:19.027Z,5.23
2023-01-30T19:51:45.689Z,4.97
2023-01-30T19:54:13.056Z,4.60
2023-01-30T19:56:41.937Z,5.77
2023-01-30T19:59:11.184Z,5.03
2023-01-30T20:01:40.240Z,4.50
2023-01-30T20:04:07.057Z,4.80
2023-01-30T20:06:37.382Z,4.97
2023-01-30T20:09:11.240Z,4.43
2023-01-30T20:11:40.513Z,4.73
2023-01-30T20:14:08.245Z,4.97
2023-01-30T20:16:36.037Z,4.87
2023-01-30T20:19:06.273Z,4.10
2023-01-30T20:21:33.865Z,4.73
2023-01-30T20:24:02.163Z,5.60
2023-01-30T20:26:32.508Z,4.17
2023-01-30T20:28:59.334Z,4.40
2023-01-30T20:31:28.274Z,4.83
2023-01-30T20:33:57.646Z,4.97
2023-01-30T20:36:26.918Z,4.40
2023-01-30T20:38:55.407Z,3.77
2023-01-30T20:41:26.731Z,4.83
2023-01-30T20:43:57.305Z,4.90
2023-01-30T20:46:26.951Z,4.83
2023-01-30T20:48:55.360Z,3.70
2023-01-30T20:51:24.992Z,4.20
2023-01-30T20:53:57.181Z,4.03
2023-01-30T20:56:26.422Z,4.00
2023-01-30T20:58:53.383Z,4.40
2023-01-30T21:01:22.857Z,4.33
2023-01-30T21:03:52.382Z,4.70
2023-01-30T21:06:42.028Z,3.97
2023-01-30T21:09:18.041Z,4.10
2023-01-30T21:11:45.473Z,5.00
2023-01-30T21:14:12.851Z,5.20
2023-01-30T21:16:40.309Z,4.90
2023-01-30T21:19:10.189Z,4.13
2023-01-30T21:21:48.163Z,4.50
2023-01-30T21:24:15.362Z,4.67
2023-01-30T21:26:46.269Z,3.77
2023-01-30T21:29:17.579Z,4.23
2023-01-30T21:31:45.058Z,4.43
2023-01-30T21:34:13.468Z,4.37
2023-01-30T21:36:40.604Z,3.90
2023-01-30T21:39:26.283Z,4.20
2023-01-30T21:42:11.491Z,5.10
2023-01-30T21:44:38.293Z,2.77
2023-01-30T21:47:06.448Z,3.27
2023-01-30T21:49:33.758Z,2.97
2023-01-30T21:52:01.006Z,3.33
2023-01-30T21:54:27.883Z,2.60
2023-01-30T21:56:54.884Z,2.80
2023-01-30T21:59:22.278Z,2.77
2023-01-30T22:01:49.010Z,3.70
2023-01-30T22:04:18.121Z,3.17
2023-01-30T22:06:44.807Z,3.37
2023-01-30T22:09:14.471Z,4.70
2023-01-30T22:11:41.644Z,4.73
2023-01-30T22:14:08.702Z,5.50
2023-01-30T22:16:35.406Z,4.67
2023-01-30T22:19:05.484Z,4.73
2023-01-30T22:21:40.073Z,4.97
2023-01-30T22:24:09.429Z,5.37
2023-01-30T22:26:36.725Z,6.03
2023-01-30T22:29:06.053Z,4.33
2023-01-30T22:31:36.600Z,5.03
2023-01-30T22:34:04.868Z,5.53
2023-01-30T22:36:34.487Z,5.53
2023-01-30T22:39:01.661Z,4.83
2023-01-30T22:41:31.689Z,6.13
2023-01-30T22:44:00.444Z,5.63
2023-01-30T22:46:33.508Z,5.00
2023-01-30T22:49:01.806Z,6.37
2023-01-30T22:51:31.160Z,5.00
2023-01-30T22:54:02.947Z,5.23
2023-01-30T22:56:41.382Z,5.27
2023-01-30T22:59:09.344Z,6.23
2023-01-30T23:01:38.551Z,5.37
2023-01-30T23:04:10.642Z,6.60
2023-01-30T23:06:39.513Z,4.97
2023-01-30T23:09:07.888Z,5.50
2023-01-30T23:11:41.483Z,4.67
2023-01-30T23:14:15.265Z,4.03
2023-01-30T23:16:44.846Z,3.53
2023-01-30T23:19:13.220Z,3.40
2023-01-30T23:21:45.544Z,2.93
2023-01-30T23:24:18.140Z,3.83
2023-01-30T23:26:48.100Z,4.57
2023-01-30T23:29:16.855Z,4.20
2023-01-30T23:31:44.783Z,4.00
2023-01-30T23:34:17.208Z,5.50
2023-01-30T23:36:44.904Z,4.90
2023-01-30T23:39:13.606Z,4.73
2023-01-30T23:41:41.868Z,4.83
2023-01-30T23:44:09.717Z,4.00
2023-01-30T23:46:41.522Z,4.63
2023-01-30T23:49:11.438Z,4.13
2023-01-30T23:51:40.368Z,4.63
2023-01-30T23:54:07.676Z,5.83
2023-01-30T23:56:36.380Z,4.63
2023-01-30T23:59:04.149Z,4.90
